createdAt,value
2023-04-06T00:04:08.194Z,21.68
2023-04-06T00:09:11.185Z,21.64
2023-04-06T00:14:14.767Z,21.60
2023-04-06T00:19:18.984Z,21.54
2023-04-06T00:24:21.969Z,21.50
2023-04-06T00:29:24.844Z,21.45
2023-04-06T00:34:29.128Z,21.42
2023-04-06T00:39:32.060Z,21.39
2023-04-06T00:44:34.919Z,21.36
2023-04-06T00:49:39.174Z,21.36
2023-04-06T00:54:42.155Z,21.30
2023-04-06T00:59:47.123Z,21.28
2023-04-06T01:04:51.844Z,21.23
2023-04-06T01:10:02.078Z,21.20
2023-04-06T01:15:07.313Z,21.17
2023-04-06T01:20:13.480Z,21.16
2023-04-06T01:25:18.241Z,21.11
2023-04-06T01:30:38.189Z,21.09
2023-04-06T01:35:48.216Z,21.05
2023-04-06T01:40:56.331Z,21.03
2023-04-06T01:46:01.773Z,21.02
2023-04-06T01:51:09.996Z,21.00
2023-04-06T01:56:23.148Z,20.92
2023-04-06T02:01:37.812Z,20.96
2023-04-06T02:06:40.858Z,20.92
2023-04-06T02:11:47.539Z,20.92
2023-04-06T02:16:50.580Z,20.89
2023-04-06T02:21:53.692Z,20.88
2023-04-06T02:26:57.967Z,20.85
2023-04-06T02:32:00.944Z,20.82
2023-04-06T02:37:05.931Z,20.81
2023-04-06T02:42:10.704Z,20.80
2023-04-06T02:47:13.714Z,20.78
2023-04-06T02:52:20.981Z,20.76
2023-04-06T02:57:25.418Z,20.74
2023-04-06T03:02:28.597Z,20.71
2023-04-06T03:07:40.622Z,20.70
2023-04-06T03:12:49.969Z,20.67
2023-04-06T03:18:01.673Z,20.66
2023-04-06T03:23:21.771Z,20.64
2023-04-06T03:28:30.511Z,20.63
2023-04-06T03:33:36.441Z,20.62
2023-04-06T03:38:41.312Z,20.61
2023-04-06T03:43:49.681Z,20.59
2023-04-06T03:48:54.379Z,20.59
2023-04-06T03:54:00.052Z,20.56
2023-04-06T03:59:04.317Z,20.56
2023-04-06T04:04:07.658Z,20.54
2023-04-06T04:09:10.638Z,20.52
2023-04-06T04:14:15.333Z,20.53
2023-04-06T04:19:18.259Z,20.50
2023-04-06T04:24:21.236Z,20.49
2023-04-06T04:29:25.775Z,20.47
2023-04-06T04:34:30.617Z,20.47
2023-04-06T04:39:34.030Z,20.45
2023-04-06T04:44:42.306Z,20.41
2023-04-06T04:49:46.209Z,20.40
2023-04-06T04:54:54.000Z,20.40
2023-04-06T05:00:04.158Z,20.37
2023-04-06T05:05:09.274Z,20.35
2023-04-06T05:10:12.817Z,20.34
2023-04-06T05:15:27.811Z,20.33
2023-04-06T05:20:36.893Z,20.32
2023-04-06T05:25:40.204Z,20.30
2023-04-06T05:30:53.033Z,20.30
2023-04-06T05:35:56.313Z,20.29
2023-04-06T05:40:59.925Z,20.30
2023-04-06T05:46:09.137Z,20.30
2023-04-06T05:51:12.204Z,20.31
2023-04-06T05:56:21.772Z,20.32
2023-04-06T06:01:26.210Z,20.32
2023-04-06T06:06:31.084Z,20.32
2023-04-06T06:11:52.931Z,20.33
2023-04-06T06:17:02.026Z,20.34
2023-04-06T06:22:06.081Z,20.33
2023-04-06T06:27:13.140Z,20.33
2023-04-06T06:32:18.057Z,20.34
2023-04-06T06:37:24.722Z,20.33
2023-04-06T06:42:28.354Z,20.35
2023-04-06T06:47:54.406Z,20.34
2023-04-06T06:52:58.531Z,20.35
2023-04-06T06:58:01.611Z,20.37
2023-04-06T07:03:06.372Z,19.98
2023-04-06T07:08:10.085Z,18.29
2023-04-06T07:13:13.334Z,18.32
2023-04-06T07:18:18.198Z,19.26
2023-04-06T07:23:22.151Z,19.70
2023-04-06T07:28:25.114Z,19.97
2023-04-06T07:33:30.908Z,20.10
2023-04-06T07:38:34.531Z,20.25
2023-04-06T07:43:37.593Z,20.42
2023-04-06T07:48:42.618Z,20.43
2023-04-06T07:53:46.279Z,20.51
2023-04-06T07:58:49.526Z,20.54
2023-04-06T08:03:56.588Z,20.55
2023-04-06T08:08:59.616Z,20.60
2023-04-06T08:14:02.566Z,20.59
2023-04-06T08:23:24.254Z,20.59
2023-04-06T08:28:27.294Z,20.61
2023-04-06T08:33:30.667Z,20.62
2023-04-06T08:38:34.920Z,20.60
2023-04-06T08:43:45.024Z,20.58
2023-04-06T08:48:50.772Z,20.59
2023-04-06T08:53:56.695Z,20.59
2023-04-06T08:59:00.642Z,20.59
2023-04-06T09:04:08.204Z,20.60
2023-04-06T09:09:13.682Z,20.60
2023-04-06T09:14:17.690Z,20.62
2023-04-06T09:19:20.710Z,20.60
2023-04-06T09:24:27.157Z,20.63
2023-04-06T09:29:30.092Z,20.63
2023-04-06T09:34:33.057Z,20.66
2023-04-06T09:39:37.332Z,20.65
2023-04-06T09:44:40.342Z,20.67
2023-04-06T09:49:43.824Z,20.71
2023-04-06T09:54:52.131Z,20.76
2023-04-06T10:00:04.843Z,20.74
2023-04-06T10:05:12.089Z,20.76
2023-04-06T10:10:16.894Z,20.78
2023-04-06T10:15:22.576Z,20.81
2023-04-06T10:20:33.123Z,20.83
2023-04-06T10:25:38.702Z,20.86
2023-04-06T10:30:44.698Z,20.93
2023-04-06T10:35:48.411Z,20.92
2023-04-06T10:40:52.827Z,20.97
2023-04-06T10:45:58.406Z,21.03
2023-04-06T10:51:01.433Z,21.00
2023-04-06T10:56:11.169Z,21.07
2023-04-06T11:01:14.267Z,21.04
2023-04-06T11:06:21.761Z,20.58
2023-04-06T11:11:28.422Z,19.56
2023-04-06T11:16:33.139Z,20.45
2023-04-06T11:21:38.080Z,20.80
2023-04-06T11:26:44.733Z,20.90
2023-04-06T11:31:49.733Z,20.94
2023-04-06T11:36:57.759Z,20.99
2023-04-06T11:42:06.136Z,21.03
2023-04-06T11:47:12.580Z,21.04
2023-04-06T11:52:20.806Z,21.08
2023-04-06T11:57:26.514Z,21.10
2023-04-06T12:02:29.776Z,21.07
2023-04-06T12:07:32.886Z,21.06
2023-04-06T12:12:37.285Z,21.05
2023-04-06T12:17:40.326Z,21.04
2023-04-06T12:22:43.574Z,21.06
2023-04-06T12:27:48.134Z,21.06
2023-04-06T12:32:52.534Z,21.08
2023-04-06T12:37:55.753Z,21.08
2023-04-06T12:43:00.194Z,21.12
2023-04-06T12:48:03.245Z,21.14
2023-04-06T12:53:06.264Z,21.18
2023-04-06T12:58:10.598Z,21.23
2023-04-06T13:03:13.618Z,21.27
2023-04-06T13:08:17.055Z,21.29
2023-04-06T13:13:25.918Z,21.29
2023-04-06T13:18:28.866Z,21.38
2023-04-06T13:23:31.731Z,21.46
2023-04-06T13:28:38.812Z,21.48
2023-04-06T13:33:42.616Z,21.47
2023-04-06T13:38:46.245Z,21.46
2023-04-06T13:43:50.734Z,21.48
2023-04-06T13:48:53.703Z,21.53
2023-04-06T13:53:56.554Z,21.49
2023-04-06T13:59:00.758Z,21.30
2023-04-06T14:04:03.748Z,21.42
2023-04-06T14:09:06.595Z,21.83
2023-04-06T14:14:10.719Z,21.80
2023-04-06T14:19:15.202Z,21.92
2023-04-06T14:24:18.578Z,22.04
2023-04-06T14:29:22.751Z,22.20
2023-04-06T14:34:25.680Z,22.20
2023-04-06T14:39:28.612Z,22.28
2023-04-06T14:44:35.179Z,22.48
2023-04-06T14:49:38.206Z,22.59
2023-04-06T14:54:41.183Z,22.61
2023-04-06T14:59:45.375Z,22.64
2023-04-06T15:04:48.116Z,22.65
2023-04-06T15:09:51.266Z,22.78
2023-04-06T15:14:55.543Z,22.84
2023-04-06T15:19:58.524Z,22.91
2023-04-06T15:25:01.404Z,22.87
2023-04-06T15:30:07.085Z,23.08
2023-04-06T15:35:13.790Z,23.10
2023-04-06T15:40:16.824Z,23.13
2023-04-06T15:45:21.280Z,23.11
2023-04-06T15:50:24.311Z,23.26
2023-04-06T15:55:27.525Z,23.39
2023-04-06T16:00:32.292Z,23.49
2023-04-06T16:05:47.954Z,23.56
2023-04-06T16:10:56.599Z,23.58
2023-04-06T16:16:00.915Z,23.54
2023-04-06T16:21:03.993Z,23.72
2023-04-06T16:26:12.783Z,23.72
2023-04-06T16:31:21.958Z,23.76
2023-04-06T16:36:25.469Z,23.73
2023-04-06T16:41:28.976Z,23.81
2023-04-06T16:46:33.797Z,23.80
2023-04-06T16:51:36.946Z,23.75
2023-04-06T16:56:39.786Z,23.79
2023-04-06T17:01:44.164Z,23.75
2023-04-06T17:06:47.012Z,23.66
2023-04-06T17:11:49.851Z,23.50
2023-04-06T17:16:55.103Z,23.48
2023-04-06T17:21:58.129Z,23.34
2023-04-06T17:27:01.358Z,23.20
2023-04-06T17:32:05.893Z,23.20
2023-04-06T17:37:08.711Z,22.98
2023-04-06T17:42:11.563Z,23.22
2023-04-06T17:47:15.955Z,23.29
2023-04-06T17:52:18.867Z,23.31
2023-04-06T17:57:22.205Z,23.27
2023-04-06T18:02:26.526Z,23.25
2023-04-06T18:07:29.419Z,23.19
2023-04-06T18:12:32.483Z,23.02
2023-04-06T18:17:36.968Z,22.98
2023-04-06T18:22:40.316Z,22.86
2023-04-06T18:27:43.092Z,22.71
2023-04-06T18:32:47.595Z,22.76
2023-04-06T18:37:50.524Z,22.57
2023-04-06T18:42:53.376Z,22.41
2023-04-06T18:47:57.966Z,22.32
2023-04-06T18:53:01.066Z,22.29
2023-04-06T18:58:03.898Z,22.32
2023-04-06T19:03:08.335Z,22.60
2023-04-06T19:08:11.822Z,22.74
2023-04-06T19:13:14.541Z,22.62
2023-04-06T19:18:20.117Z,22.56
2023-04-06T19:23:22.887Z,22.53
2023-04-06T19:28:25.853Z,22.47
2023-04-06T19:33:32.313Z,22.43
2023-04-06T19:38:36.298Z,22.45
2023-04-06T19:43:39.227Z,22.32
2023-04-06T19:48:43.537Z,22.38
2023-04-06T19:53:46.328Z,22.34
2023-04-06T19:58:49.055Z,22.47
2023-04-06T20:03:53.331Z,22.39
2023-04-06T20:08:56.349Z,22.49
2023-04-06T20:13:59.144Z,22.49
2023-04-06T20:19:03.397Z,22.49
2023-04-06T20:24:06.520Z,22.56
2023-04-06T20:29:09.319Z,22.65
2023-04-06T20:34:13.984Z,22.61
2023-04-06T20:39:16.810Z,22.74
2023-04-06T20:44:21.206Z,22.52
2023-04-06T20:49:25.608Z,22.47
2023-04-06T20:54:29.447Z,22.40
2023-04-06T20:59:32.230Z,22.42
2023-04-06T21:04:36.888Z,22.42
2023-04-06T21:09:40.849Z,22.51
2023-04-06T21:14:43.925Z,22.18
2023-04-06T21:19:47.998Z,22.40
2023-04-06T21:24:50.739Z,22.25
2023-04-06T21:29:53.530Z,22.23
2023-04-06T21:34:57.657Z,22.19
2023-04-06T21:40:02.256Z,22.04
2023-04-06T21:45:05.708Z,22.06
2023-04-06T21:50:10.684Z,22.03
2023-04-06T21:55:13.704Z,22.16
2023-04-06T22:00:18.595Z,22.04
2023-04-06T22:05:22.985Z,21.98
2023-04-06T22:10:26.224Z,22.07
2023-04-06T22:15:29.133Z,22.14
2023-04-06T22:20:34.134Z,22.07
2023-04-06T22:25:37.349Z,21.98
2023-04-06T22:30:40.094Z,22.04
2023-04-06T22:35:44.365Z,22.08
2023-04-06T22:40:47.355Z,22.06
2023-04-06T22:45:50.096Z,22.30
2023-04-06T22:50:54.253Z,22.44
2023-04-06T22:55:56.981Z,22.52
2023-04-06T23:00:59.881Z,22.54
2023-04-06T23:06:04.134Z,22.52
2023-04-06T23:11:07.200Z,22.43
2023-04-06T23:16:10.372Z,22.37
2023-04-06T23:21:14.814Z,22.33
2023-04-06T23:26:17.793Z,22.25
2023-04-06T23:31:20.630Z,22.22
2023-04-06T23:36:24.822Z,22.16
2023-04-06T23:41:31.085Z,22.12
2023-04-06T23:46:33.892Z,22.05
2023-04-06T23:51:38.050Z,22.00
2023-04-06T23:56:41.702Z,21.96
